createdAt,value
2023-02-18T00:03:54.036Z,100204.63
2023-02-18T00:08:57.252Z,100204.69
2023-02-18T00:14:01.671Z,100210.59
2023-02-18T00:19:07.731Z,100209.78
2023-02-18T00:24:12.726Z,100198.03
2023-02-18T00:29:14.385Z,100202.28
2023-02-18T00:34:16.539Z,100219.16
2023-02-18T00:39:18.153Z,100219.19
2023-02-18T00:44:19.940Z,100209.06
2023-02-18T00:49:21.565Z,100211.56
2023-02-18T00:54:23.160Z,100201.44
2023-02-18T00:59:25.917Z,100203.97
2023-02-18T01:04:27.539Z,100204.00
2023-02-18T01:09:29.955Z,100204.00
2023-02-18T01:14:31.611Z,100187.97
2023-02-18T01:19:33.208Z,100193.84
2023-02-18T01:24:35.151Z,100191.34
2023-02-18T01:29:36.728Z,100173.63
2023-02-18T01:34:38.341Z,100167.72
2023-02-18T01:39:40.581Z,100160.13
2023-02-18T01:44:44.158Z,100176.13
2023-02-18T01:49:52.982Z,100186.22
2023-02-18T01:54:57.503Z,100183.75
2023-02-18T02:00:08.540Z,100181.19
2023-02-18T02:05:18.155Z,100168.53
2023-02-18T02:10:20.237Z,100171.03
2023-02-18T02:15:44.432Z,100164.31
2023-02-18T02:21:16.909Z,100161.78
2023-02-18T02:26:58.536Z,100171.88
2023-02-18T02:32:15.193Z,100168.50
2023-02-18T02:37:31.434Z,100153.34
2023-02-18T02:42:48.005Z,100160.06
2023-02-18T02:48:03.396Z,100159.22
2023-02-18T02:53:14.165Z,100166.78
2023-02-18T02:58:17.963Z,100172.75
2023-02-18T03:03:57.974Z,100176.97
2023-02-18T03:09:03.967Z,100165.16
2023-02-18T03:14:14.892Z,100148.28
2023-02-18T03:19:31.692Z,100151.63
2023-02-18T03:24:57.250Z,100155.81
2023-02-18T03:30:16.149Z,100156.59
2023-02-18T03:35:18.757Z,100163.34
2023-02-18T03:40:20.668Z,100170.91
2023-02-18T03:45:22.289Z,100175.97
2023-02-18T03:50:24.282Z,100175.94
2023-02-18T03:55:25.947Z,100180.13
2023-02-18T04:00:27.592Z,100183.53
2023-02-18T04:05:29.410Z,100181.81
2023-02-18T04:10:31.248Z,100196.13
2023-02-18T04:15:34.608Z,100196.94
2023-02-18T04:20:37.375Z,100202.81
2023-02-18T04:25:39.401Z,100190.19
2023-02-18T04:30:41.601Z,100204.50
2023-02-18T04:35:43.321Z,100205.31
2023-02-18T04:40:44.943Z,100200.22
2023-02-18T04:45:46.674Z,100200.22
2023-02-18T04:50:48.321Z,100209.50
2023-02-18T04:55:51.716Z,100211.28
2023-02-18T05:00:54.102Z,100210.38
2023-02-18T05:05:55.801Z,100211.31
2023-02-18T05:10:57.502Z,100230.72
2023-02-18T05:15:59.357Z,100229.88
2023-02-18T05:21:01.022Z,100240.00
2023-02-18T05:26:02.893Z,100235.78
2023-02-18T05:31:04.825Z,100249.22
2023-02-18T05:36:07.158Z,100248.41
2023-02-18T05:41:09.120Z,100245.03
2023-02-18T05:46:10.997Z,100250.91
2023-02-18T05:51:12.764Z,100257.59
2023-02-18T05:56:14.335Z,100255.06
2023-02-18T06:01:16.390Z,100260.94
2023-02-18T06:06:18.044Z,100265.97
2023-02-18T06:11:19.893Z,100267.69
2023-02-18T06:16:21.886Z,100255.03
2023-02-18T06:21:24.163Z,100274.44
2023-02-18T06:26:28.971Z,100268.56
2023-02-18T06:31:30.943Z,100261.81
2023-02-18T06:36:32.725Z,100263.50
2023-02-18T06:41:34.592Z,100258.44
2023-02-18T06:46:36.212Z,100253.41
2023-02-18T06:51:38.295Z,100255.13
2023-02-18T06:56:40.156Z,100260.19
2023-02-18T07:01:41.995Z,100254.31
2023-02-18T07:06:43.862Z,100266.97
2023-02-18T07:11:45.485Z,100251.81
2023-02-18T07:16:47.268Z,100263.69
2023-02-18T07:21:48.991Z,100264.50
2023-02-18T07:26:50.560Z,100269.56
2023-02-18T07:31:52.600Z,100261.97
2023-02-18T07:36:54.592Z,100259.50
2023-02-18T07:41:56.171Z,100266.31
2023-02-18T07:46:59.755Z,100254.50
2023-02-18T07:52:03.032Z,100263.78
2023-02-18T07:57:05.540Z,100248.63
2023-02-18T08:02:07.696Z,100263.00
2023-02-18T08:07:13.694Z,100261.31
2023-02-18T08:12:15.381Z,100268.91
2023-02-18T08:17:18.040Z,100256.25
2023-02-18T08:22:19.659Z,100273.94
2023-02-18T08:27:21.273Z,100255.44
2023-02-18T08:32:22.931Z,100253.78
2023-02-18T08:37:24.594Z,100247.94
2023-02-18T08:42:26.426Z,100254.69
2023-02-18T08:48:17.010Z,100253.00
2023-02-18T08:52:49.854Z,100242.03
2023-02-18T08:57:51.819Z,100247.94
2023-02-18T09:02:53.390Z,100236.13
2023-02-18T09:07:55.089Z,100253.00
2023-02-18T09:12:56.960Z,100245.44
2023-02-18T09:17:58.612Z,100246.28
2023-02-18T09:23:01.672Z,100242.06
2023-02-18T09:28:03.341Z,100236.16
2023-02-18T09:33:05.021Z,100242.03
2023-02-18T09:38:08.594Z,100239.53
2023-02-18T09:43:23.738Z,100241.22
2023-02-18T09:48:30.833Z,100247.97
2023-02-18T09:53:33.077Z,100237.00
2023-02-18T09:58:34.975Z,100226.84
2023-02-18T10:03:37.466Z,100226.00
2023-02-18T10:08:50.922Z,100227.69
2023-02-18T10:13:54.073Z,100215.03
2023-02-18T10:19:04.232Z,100215.88
2023-02-18T10:24:19.677Z,100208.28
2023-02-18T10:29:22.271Z,100214.19
2023-02-18T10:35:06.941Z,100210.84
2023-02-18T10:40:23.794Z,100184.63
2023-02-18T10:45:52.551Z,100179.56
2023-02-18T10:50:55.144Z,100178.72
2023-02-18T10:55:58.918Z,100175.34
2023-02-18T11:01:08.839Z,100153.38
2023-02-18T11:06:47.452Z,100138.94
2023-02-18T11:11:53.616Z,100135.56
2023-02-18T11:17:21.348Z,100126.22
2023-02-18T11:22:30.719Z,100104.16
2023-02-18T11:27:42.130Z,100098.94
2023-02-18T11:32:44.472Z,100108.22
2023-02-18T11:37:46.852Z,100078.56
2023-02-18T11:42:48.818Z,100074.97
2023-02-18T11:47:59.710Z,100049.38
2023-02-18T11:53:21.360Z,100060.97
2023-02-18T11:58:23.107Z,100051.75
2023-02-18T12:03:35.341Z,100028.19
2023-02-18T12:08:51.238Z,100011.16
2023-02-18T12:13:58.571Z,100000.09
2023-02-18T12:19:31.484Z,99997.19
2023-02-18T12:24:57.004Z,99983.69
2023-02-18T12:30:26.921Z,99975.13
2023-02-18T12:35:37.959Z,99971.56
2023-02-18T12:40:54.219Z,99967.03
2023-02-18T12:46:17.182Z,99939.75
2023-02-18T12:51:56.443Z,99934.59
2023-02-18T12:57:15.439Z,99929.00
2023-02-18T13:02:23.717Z,99908.09
2023-02-18T13:07:25.272Z,99903.88
2023-02-18T13:12:55.804Z,99907.50
2023-02-18T13:18:01.158Z,99893.88
2023-02-18T13:23:04.558Z,99900.38
2023-02-18T13:28:18.437Z,99855.91
2023-02-18T13:33:46.773Z,99875.38
2023-02-18T13:39:11.070Z,99854.00
2023-02-18T13:44:18.613Z,99847.13
2023-02-18T13:49:24.061Z,99836.66
2023-02-18T13:54:29.606Z,99832.06
2023-02-18T13:59:45.598Z,99820.53
2023-02-18T14:04:47.258Z,99816.78
2023-02-18T14:09:48.928Z,99800.34
2023-02-18T14:14:51.335Z,99793.03
2023-02-18T14:19:56.361Z,99787.41
2023-02-18T14:25:19.980Z,99790.16
2023-02-18T14:30:21.645Z,99782.63
2023-02-18T14:35:35.081Z,99783.47
2023-02-18T14:41:11.818Z,99774.34
2023-02-18T14:46:28.829Z,99761.03
2023-02-18T14:51:33.987Z,99756.81
2023-02-18T14:56:41.705Z,99760.22
2023-02-18T15:01:43.367Z,99772.28
2023-02-18T15:06:45.016Z,99789.16
2023-02-18T15:11:55.152Z,99772.34
2023-02-18T15:16:58.785Z,99774.84
2023-02-18T15:22:00.485Z,99769.75
2023-02-18T15:27:11.187Z,99770.56
2023-02-18T15:32:27.530Z,99762.09
2023-02-18T15:37:30.759Z,99767.13
2023-02-18T15:42:35.892Z,99747.69
2023-02-18T15:47:43.937Z,99764.69
2023-02-18T15:52:47.012Z,99763.00
2023-02-18T15:57:49.325Z,99765.47
2023-02-18T16:03:01.913Z,99752.06
2023-02-18T16:08:14.646Z,99743.75
2023-02-18T16:13:18.915Z,99739.66
2023-02-18T16:18:25.770Z,99729.59
2023-02-18T16:23:36.030Z,99724.69
2023-02-18T16:28:43.731Z,99723.00
2023-02-18T16:33:45.536Z,99718.06
2023-02-18T16:38:47.160Z,99726.59
2023-02-18T16:43:50.399Z,99740.97
2023-02-18T16:48:57.560Z,99736.00
2023-02-18T16:53:59.775Z,99740.34
2023-02-18T16:59:01.503Z,99748.03
2023-02-18T17:04:04.091Z,99764.06
2023-02-18T17:09:17.007Z,99767.47
2023-02-18T17:14:21.835Z,99768.31
2023-02-18T17:19:24.217Z,99770.75
2023-02-18T17:24:26.129Z,99780.00
2023-02-18T17:29:27.752Z,99790.09
2023-02-18T17:34:32.570Z,99783.25
2023-02-18T17:39:34.345Z,99787.50
2023-02-18T17:44:36.556Z,99797.66
2023-02-18T17:49:38.403Z,99781.53
2023-02-18T17:54:40.024Z,99797.56
2023-02-18T17:59:41.708Z,99779.75
2023-02-18T18:04:43.365Z,99773.06
2023-02-18T18:09:45.015Z,99770.63
2023-02-18T18:14:46.654Z,99778.25
2023-02-18T18:19:48.236Z,99781.66
2023-02-18T18:24:50.263Z,99780.81
2023-02-18T18:29:51.922Z,99800.31
2023-02-18T18:34:53.720Z,99809.63
2023-02-18T18:39:55.322Z,99817.31
2023-02-18T18:44:57.002Z,99819.03
2023-02-18T18:50:00.129Z,99816.53
2023-02-18T18:55:02.106Z,99823.28
2023-02-18T19:00:04.325Z,99816.59
2023-02-18T19:05:06.105Z,99831.78
2023-02-18T19:10:08.156Z,99845.25
2023-02-18T19:15:21.515Z,99847.72
2023-02-18T19:20:25.939Z,99844.41
2023-02-18T19:25:28.050Z,99846.97
2023-02-18T19:30:32.564Z,99858.81
2023-02-18T19:35:34.409Z,99857.97
2023-02-18T19:40:36.860Z,99868.06
2023-02-18T19:45:46.716Z,99864.63
2023-02-18T19:50:48.500Z,99875.59
2023-02-18T19:56:02.257Z,99878.13
2023-02-18T20:01:04.468Z,99878.13
2023-02-18T20:06:07.037Z,99881.47
2023-02-18T20:11:08.913Z,99880.63
2023-02-18T20:16:11.717Z,99890.78
2023-02-18T20:21:13.429Z,99889.06
2023-02-18T20:26:15.351Z,99894.16
2023-02-18T20:31:17.637Z,99897.59
2023-02-18T20:36:20.180Z,99910.34
2023-02-18T20:41:22.809Z,99912.88
2023-02-18T20:46:24.752Z,99922.22
2023-02-18T20:51:26.622Z,99942.47
2023-02-18T20:56:28.420Z,99940.78
2023-02-18T21:01:30.354Z,99945.84
2023-02-18T21:06:32.036Z,99939.06
2023-02-18T21:11:34.456Z,99952.59
2023-02-18T21:16:39.144Z,99947.56
2023-02-18T21:21:41.610Z,99955.16
2023-02-18T21:26:43.380Z,99959.34
2023-02-18T21:31:45.188Z,99969.47
2023-02-18T21:36:46.944Z,99969.50
2023-02-18T21:41:48.777Z,99976.25
2023-02-18T21:46:50.392Z,99972.91
2023-02-18T21:51:57.926Z,99991.47
2023-02-18T21:57:01.264Z,99981.38
2023-02-18T22:02:04.511Z,99983.09
2023-02-18T22:07:06.326Z,99994.88
2023-02-18T22:12:08.731Z,99994.88
2023-02-18T22:17:10.405Z,99984.75
2023-02-18T22:22:12.078Z,99989.78
2023-02-18T22:27:13.898Z,99980.53
2023-02-18T22:32:15.879Z,99985.59
2023-02-18T22:37:17.544Z,99994.84
2023-02-18T22:42:19.237Z,99984.75
2023-02-18T22:47:21.046Z,99995.69
2023-02-18T22:52:22.742Z,99998.22
2023-02-18T22:57:24.380Z,100004.97
2023-02-18T23:02:26.136Z,100006.63
2023-02-18T23:07:27.739Z,100001.56
2023-02-18T23:12:29.423Z,100014.19
2023-02-18T23:17:31.069Z,100020.91
2023-02-18T23:22:33.645Z,100020.06
2023-02-18T23:27:35.447Z,100021.75
2023-02-18T23:32:39.263Z,100046.19
2023-02-18T23:37:59.483Z,100030.09
2023-02-18T23:43:01.677Z,100031.75
2023-02-18T23:48:03.738Z,100041.03
2023-02-18T23:53:05.342Z,100057.84
2023-02-18T23:58:06.936Z,100055.31
